createdAt,value
2022-08-03T00:00:35.155Z,3.22
2022-08-03T00:03:02.227Z,4.25
2022-08-03T00:05:29.239Z,3.35
2022-08-03T00:07:56.162Z,3.05
2022-08-03T00:10:23.176Z,3.25
2022-08-03T00:12:53.280Z,3.60
2022-08-03T00:15:20.417Z,3.38
2022-08-03T00:17:52.461Z,3.25
2022-08-03T00:20:21.925Z,3.40
2022-08-03T00:22:49.711Z,3.25
2022-08-03T00:25:16.939Z,3.17
2022-08-03T00:27:43.865Z,3.63
2022-08-03T00:30:13.313Z,3.40
2022-08-03T00:32:45.077Z,3.47
2022-08-03T00:37:59.619Z,3.65
2022-08-03T00:40:26.938Z,3.33
2022-08-03T00:43:03.253Z,3.70
2022-08-03T00:45:34.083Z,3.65
2022-08-03T00:48:05.332Z,3.67
2022-08-03T00:50:35.330Z,3.58
2022-08-03T00:53:04.970Z,4.35
2022-08-03T00:55:32.165Z,3.92
2022-08-03T00:58:06.465Z,3.63
2022-08-03T01:00:42.053Z,3.97
2022-08-03T01:03:10.518Z,3.58
2022-08-03T01:06:19.646Z,3.90
2022-08-03T01:08:54.928Z,3.72
2022-08-03T01:12:00.134Z,3.53
2022-08-03T01:14:39.176Z,3.25
2022-08-03T01:17:21.415Z,2.85
2022-08-03T01:20:04.809Z,3.22
2022-08-03T01:22:58.883Z,3.17
2022-08-03T01:25:34.276Z,2.90
2022-08-03T01:28:17.844Z,2.78
2022-08-03T01:30:48.774Z,2.70
2022-08-03T01:33:18.423Z,2.97
2022-08-03T01:35:50.930Z,3.33
2022-08-03T01:38:48.595Z,2.95
2022-08-03T01:41:20.460Z,3.20
2022-08-03T01:43:55.331Z,2.80
2022-08-03T01:49:10.467Z,2.58
2022-08-03T01:52:03.635Z,3.00
2022-08-03T01:54:36.643Z,2.22
2022-08-03T01:57:04.755Z,2.67
2022-08-03T01:59:34.521Z,2.70
2022-08-03T02:02:32.070Z,2.45
2022-08-03T02:04:52.629Z,2.30
2022-08-03T02:07:22.729Z,2.55
2022-08-03T02:09:52.607Z,2.50
2022-08-03T02:12:20.954Z,2.30
2022-08-03T02:14:51.779Z,2.38
2022-08-03T02:17:39.349Z,2.60
2022-08-03T02:20:08.751Z,2.70
2022-08-03T02:22:39.248Z,2.30
2022-08-03T02:25:13.565Z,2.65
2022-08-03T02:27:58.100Z,2.42
2022-08-03T02:30:38.627Z,2.40
2022-08-03T02:33:13.285Z,2.20
2022-08-03T02:35:44.354Z,2.65
2022-08-03T02:38:12.817Z,2.55
2022-08-03T02:40:42.381Z,2.65
2022-08-03T02:43:12.851Z,2.47
2022-08-03T02:45:45.734Z,2.50
2022-08-03T02:48:18.313Z,2.78
2022-08-03T02:50:46.593Z,2.50
2022-08-03T02:53:16.078Z,2.53
2022-08-03T02:55:45.900Z,2.67
2022-08-03T02:58:14.410Z,3.00
2022-08-03T03:00:44.119Z,2.38
2022-08-03T03:03:14.422Z,2.65
2022-08-03T03:05:54.775Z,2.85
2022-08-03T03:08:28.112Z,2.22
2022-08-03T03:11:03.222Z,3.00
2022-08-03T03:13:31.810Z,2.92
2022-08-03T03:16:02.606Z,2.70
2022-08-03T03:18:32.187Z,2.80
2022-08-03T03:21:01.626Z,3.03
2022-08-03T03:23:30.730Z,3.50
2022-08-03T03:26:02.337Z,2.83
2022-08-03T03:28:32.403Z,3.00
2022-08-03T03:31:00.115Z,3.00
2022-08-03T03:33:28.608Z,2.85
2022-08-03T03:35:56.278Z,2.85
2022-08-03T03:38:27.967Z,2.97
2022-08-03T03:40:57.570Z,3.17
2022-08-03T03:43:27.176Z,2.47
2022-08-03T03:45:58.053Z,3.10
2022-08-03T03:48:28.063Z,3.05
2022-08-03T03:50:57.277Z,3.28
2022-08-03T03:53:24.419Z,3.33
2022-08-03T03:55:59.639Z,2.97
2022-08-03T03:58:33.457Z,3.00
2022-08-03T04:01:01.264Z,2.88
2022-08-03T04:03:28.581Z,3.28
2022-08-03T04:06:14.451Z,3.17
2022-08-03T04:08:59.887Z,3.30
2022-08-03T04:11:31.906Z,2.92
2022-08-03T04:14:08.049Z,3.05
2022-08-03T04:16:43.850Z,3.33
2022-08-03T04:19:22.932Z,3.30
2022-08-03T04:21:57.662Z,3.95
2022-08-03T04:24:28.798Z,3.70
2022-08-03T04:26:57.383Z,3.60
2022-08-03T04:29:28.388Z,3.30
2022-08-03T04:32:00.381Z,3.60
2022-08-03T04:34:28.149Z,3.30
2022-08-03T04:37:02.147Z,3.20
2022-08-03T04:39:34.121Z,3.28
2022-08-03T04:42:08.631Z,3.05
2022-08-03T04:44:42.905Z,3.70
2022-08-03T04:47:09.908Z,3.30
2022-08-03T04:49:38.558Z,3.58
2022-08-03T04:52:10.427Z,3.67
2022-08-03T04:54:50.129Z,3.67
2022-08-03T05:00:02.699Z,3.20
2022-08-03T05:02:33.605Z,3.25
2022-08-03T05:05:00.623Z,3.28
2022-08-03T05:07:35.378Z,3.80
2022-08-03T05:10:16.376Z,3.75
2022-08-03T05:12:48.109Z,3.55
2022-08-03T05:15:17.639Z,3.50
2022-08-03T05:17:47.193Z,3.23
2022-08-03T05:20:16.655Z,3.50
2022-08-03T05:22:45.973Z,3.40
2022-08-03T05:25:17.334Z,3.60
2022-08-03T05:27:46.881Z,3.50
2022-08-03T05:30:31.500Z,3.55
2022-08-03T05:33:04.444Z,3.85
2022-08-03T05:35:55.962Z,4.22
2022-08-03T05:38:28.667Z,3.90
2022-08-03T05:41:21.125Z,4.55
2022-08-03T05:43:47.838Z,4.47
2022-08-03T05:46:17.331Z,4.38
2022-08-03T05:48:45.458Z,4.15
2022-08-03T05:51:14.870Z,4.40
2022-08-03T05:53:43.728Z,4.30
2022-08-03T05:56:13.928Z,4.50
2022-08-03T05:58:43.409Z,4.93
2022-08-03T06:01:10.469Z,4.38
2022-08-03T06:03:37.444Z,4.35
2022-08-03T06:06:09.352Z,5.10
2022-08-03T06:08:36.431Z,4.75
2022-08-03T06:11:04.110Z,4.60
2022-08-03T06:13:31.352Z,5.15
2022-08-03T06:15:58.777Z,4.78
2022-08-03T06:18:30.383Z,5.17
2022-08-03T06:21:09.565Z,4.85
2022-08-03T06:23:54.076Z,4.68
2022-08-03T06:26:29.010Z,4.80
2022-08-03T06:28:58.179Z,5.07
2022-08-03T06:31:33.395Z,4.80
2022-08-03T06:34:34.095Z,5.00
2022-08-03T06:36:52.581Z,4.63
2022-08-03T06:39:20.266Z,4.93
2022-08-03T07:02:06.627Z,3.47
2022-08-03T07:04:33.982Z,3.90
2022-08-03T07:07:00.936Z,4.22
2022-08-03T07:09:30.235Z,3.60
2022-08-03T07:11:59.944Z,3.90
2022-08-03T07:14:27.032Z,3.47
2022-08-03T07:16:58.754Z,3.90
2022-08-03T07:19:26.117Z,3.55
2022-08-03T07:21:56.376Z,4.20
2022-08-03T07:24:29.226Z,3.75
2022-08-03T07:26:58.327Z,3.78
2022-08-03T07:29:25.339Z,3.75
2022-08-03T07:31:52.206Z,4.25
2022-08-03T07:34:19.394Z,3.80
2022-08-03T07:36:46.323Z,3.90
2022-08-03T07:39:18.046Z,4.00
2022-08-03T07:41:51.539Z,3.70
2022-08-03T07:44:19.421Z,3.80
2022-08-03T07:46:48.720Z,3.05
2022-08-03T07:49:16.224Z,4.13
2022-08-03T07:51:43.210Z,4.00
2022-08-03T07:54:10.316Z,4.85
2022-08-03T07:56:37.642Z,4.18
2022-08-03T07:59:04.716Z,3.63
2022-08-03T08:01:36.694Z,3.92
2022-08-03T08:04:06.780Z,3.92
2022-08-03T08:09:03.631Z,4.13
2022-08-03T08:11:30.572Z,4.13
2022-08-03T08:13:57.469Z,4.03
2022-08-03T08:16:26.577Z,4.03
2022-08-03T08:18:55.986Z,4.38
2022-08-03T08:21:25.067Z,3.88
2022-08-03T08:24:18.133Z,4.13
2022-08-03T08:26:46.678Z,4.15
2022-08-03T08:29:14.283Z,4.13
2022-08-03T08:31:41.715Z,4.13
2022-08-03T08:34:09.252Z,4.82
2022-08-03T08:36:38.615Z,4.18
2022-08-03T08:39:05.953Z,3.90
2022-08-03T08:41:34.802Z,4.82
2022-08-03T08:44:02.387Z,5.60
2022-08-03T08:46:33.034Z,4.93
2022-08-03T08:49:04.852Z,4.82
2022-08-03T08:51:59.583Z,5.00
2022-08-03T08:54:31.515Z,4.13
2022-08-03T08:57:12.495Z,4.45
2022-08-03T08:59:56.987Z,4.43
2022-08-03T09:02:29.912Z,4.47
2022-08-03T09:04:58.342Z,4.72
2022-08-03T09:07:27.835Z,4.03
2022-08-03T09:10:10.565Z,4.35
2022-08-03T09:12:44.858Z,4.60
2022-08-03T09:15:28.766Z,4.50
2022-08-03T09:18:00.159Z,5.38
2022-08-03T09:20:29.616Z,5.00
2022-08-03T09:23:01.225Z,5.28
2022-08-03T09:25:36.667Z,5.50
2022-08-03T09:28:11.091Z,5.18
2022-08-03T09:30:39.845Z,4.88
2022-08-03T09:33:12.311Z,5.45
2022-08-03T09:35:54.500Z,5.07
2022-08-03T09:38:27.496Z,4.95
2022-08-03T09:41:00.436Z,4.60
2022-08-03T09:43:28.560Z,4.72
2022-08-03T09:46:07.387Z,4.60
2022-08-03T09:48:39.658Z,5.00
2022-08-03T09:51:14.496Z,5.15
2022-08-03T09:54:00.292Z,4.28
2022-08-03T09:56:44.253Z,4.95
2022-08-03T09:59:15.010Z,5.22
2022-08-03T10:01:42.395Z,4.90
2022-08-03T10:04:22.727Z,4.40
2022-08-03T10:07:30.972Z,4.10
2022-08-03T10:10:30.192Z,4.50
2022-08-03T10:12:52.777Z,4.72
2022-08-03T10:16:21.761Z,4.60
2022-08-03T10:18:11.194Z,5.07
2022-08-03T10:20:44.311Z,4.45
2022-08-03T10:23:12.201Z,4.55
2022-08-03T10:25:41.294Z,4.53
2022-08-03T10:28:19.188Z,4.57
2022-08-03T10:30:51.356Z,4.97
2022-08-03T10:33:51.417Z,4.80
2022-08-03T10:36:13.660Z,4.28
2022-08-03T10:38:57.294Z,3.92
2022-08-03T10:41:46.310Z,4.40
2022-08-03T10:44:20.355Z,4.20
2022-08-03T10:46:53.407Z,3.92
2022-08-03T10:49:34.605Z,4.20
2022-08-03T10:52:10.452Z,4.40
2022-08-03T10:55:07.497Z,4.07
2022-08-03T10:57:59.090Z,3.83
2022-08-03T11:03:16.174Z,4.70
2022-08-03T11:05:49.678Z,5.18
2022-08-03T11:08:24.494Z,5.00
2022-08-03T11:10:58.667Z,4.70
2022-08-03T11:13:28.311Z,5.25
2022-08-03T11:16:02.257Z,5.05
2022-08-03T11:18:33.522Z,5.13
2022-08-03T11:21:04.866Z,4.72
2022-08-03T11:24:05.372Z,4.70
2022-08-03T11:26:36.491Z,5.68
2022-08-03T11:29:31.897Z,5.95
2022-08-03T11:31:59.505Z,5.32
2022-08-03T11:34:28.685Z,5.28
2022-08-03T11:39:46.665Z,5.70
2022-08-03T11:42:22.944Z,5.45
2022-08-03T11:44:58.002Z,5.30
2022-08-03T11:47:29.709Z,6.25
2022-08-03T11:50:02.163Z,5.53
2022-08-03T11:52:35.657Z,6.03
2022-08-03T11:55:03.555Z,6.32
2022-08-03T11:59:03.379Z,6.20
2022-08-03T12:00:32.596Z,6.07
2022-08-03T12:03:03.468Z,6.82
2022-08-03T12:05:37.544Z,6.63
2022-08-03T12:08:07.356Z,6.20
2022-08-03T12:10:37.829Z,5.43
2022-08-03T12:13:56.735Z,5.82
2022-08-03T12:15:59.321Z,5.50
2022-08-03T12:18:32.787Z,5.65
2022-08-03T12:21:09.586Z,5.18
2022-08-03T12:23:41.221Z,5.47
2022-08-03T12:26:10.207Z,5.35
2022-08-03T12:28:49.791Z,5.90
2022-08-03T12:31:17.230Z,5.57
2022-08-03T12:34:08.351Z,5.90
2022-08-03T12:36:36.680Z,5.03
2022-08-03T12:39:11.899Z,5.57
2022-08-03T12:41:42.910Z,5.63
2022-08-03T12:44:12.585Z,4.97
2022-08-03T12:46:47.990Z,5.57
2022-08-03T12:49:18.793Z,5.85
2022-08-03T12:51:46.317Z,5.45
2022-08-03T12:54:17.833Z,5.60
2022-08-03T12:57:16.206Z,6.03
2022-08-03T12:59:53.251Z,6.18
2022-08-03T13:02:26.617Z,6.45
2022-08-03T13:04:54.604Z,7.07
2022-08-03T13:07:24.696Z,5.68
2022-08-03T13:09:55.947Z,6.80
2022-08-03T13:12:24.070Z,6.72
2022-08-03T13:14:58.205Z,7.55
2022-08-03T13:17:28.706Z,7.65
2022-08-03T13:19:58.427Z,7.00
2022-08-03T13:22:28.915Z,7.00
2022-08-03T13:24:57.651Z,8.98
2022-08-03T13:28:03.922Z,7.72
2022-08-03T13:30:29.729Z,7.68
2022-08-03T13:32:58.689Z,7.13
2022-08-03T13:35:26.048Z,8.10
2022-08-03T13:37:53.463Z,7.60
2022-08-03T13:40:23.825Z,8.20
2022-08-03T13:42:57.134Z,8.00
2022-08-03T13:45:27.543Z,7.28
2022-08-03T13:47:57.079Z,7.68
2022-08-03T13:50:26.514Z,7.97
2022-08-03T13:52:53.455Z,7.82
2022-08-03T13:55:20.566Z,7.28
2022-08-03T13:58:06.450Z,8.82
2022-08-03T14:00:34.661Z,8.30
2022-08-03T14:03:13.284Z,7.78
2022-08-03T14:05:43.056Z,8.68
2022-08-03T14:08:10.433Z,8.45
2022-08-03T14:10:40.049Z,8.02
2022-08-03T14:13:11.610Z,7.80
2022-08-03T14:15:39.215Z,8.23
2022-08-03T14:18:15.624Z,8.63
2022-08-03T14:20:49.986Z,8.45
2022-08-03T14:23:21.450Z,8.25
2022-08-03T14:25:51.799Z,9.40
2022-08-03T14:28:24.302Z,8.65
2022-08-03T14:30:58.775Z,9.10
2022-08-03T14:33:26.153Z,9.70
2022-08-03T14:35:53.506Z,9.35
2022-08-03T14:38:21.829Z,8.98
2022-08-03T14:40:49.763Z,8.40
2022-08-03T14:43:23.117Z,8.73
2022-08-03T14:45:53.839Z,9.77
2022-08-03T14:50:30.491Z,8.40
2022-08-03T14:51:12.136Z,8.98
2022-08-03T14:53:39.491Z,9.18
2022-08-03T14:56:10.623Z,8.02
2022-08-03T14:58:38.643Z,8.48
2022-08-03T15:02:06.399Z,7.72
2022-08-03T15:03:54.619Z,7.90
2022-08-03T15:06:27.262Z,7.15
2022-08-03T15:11:41.432Z,7.40
2022-08-03T15:14:09.539Z,8.27
2022-08-03T15:16:37.393Z,7.63
2022-08-03T15:20:05.565Z,8.15
2022-08-03T15:21:54.111Z,7.78
2022-08-03T15:24:21.281Z,7.88
2022-08-03T15:26:48.407Z,7.68
2022-08-03T15:30:05.550Z,7.88
2022-08-03T15:32:06.054Z,7.72
2022-08-03T15:34:35.817Z,8.13
2022-08-03T15:37:03.427Z,7.45
2022-08-03T15:39:59.783Z,7.50
2022-08-03T15:52:22.698Z,7.95
2022-08-03T15:54:49.800Z,7.80
2022-08-03T15:57:16.775Z,7.38
2022-08-03T15:59:43.732Z,7.18
2022-08-03T16:02:10.796Z,7.70
2022-08-03T16:04:40.774Z,7.22
2022-08-03T16:07:17.588Z,6.90
2022-08-03T16:09:47.074Z,7.32
2022-08-03T16:12:16.605Z,6.60
2022-08-03T16:14:52.773Z,7.07
2022-08-03T16:17:24.580Z,6.32
2022-08-03T16:19:55.003Z,6.25
2022-08-03T16:22:23.825Z,6.10
2022-08-03T16:24:55.049Z,5.88
2022-08-03T16:27:37.353Z,6.22
2022-08-03T16:30:15.931Z,6.57
2022-08-03T16:32:44.784Z,6.20
2022-08-03T16:35:19.742Z,6.07
2022-08-03T16:37:56.833Z,6.93
2022-08-03T16:40:25.767Z,6.93
2022-08-03T16:42:52.706Z,6.68
2022-08-03T16:45:26.042Z,7.13
2022-08-03T16:48:01.640Z,6.95
2022-08-03T16:50:34.113Z,6.60
2022-08-03T16:53:06.316Z,6.82
2022-08-03T16:55:52.171Z,7.55
2022-08-03T16:58:41.661Z,6.95
2022-08-03T17:01:21.472Z,7.07
2022-08-03T17:04:02.046Z,6.68
2022-08-03T17:09:08.710Z,6.70
2022-08-03T17:11:38.920Z,6.45
2022-08-03T17:14:12.175Z,5.70
2022-08-03T17:16:39.730Z,5.93
2022-08-03T17:19:23.405Z,5.57
2022-08-03T17:22:04.196Z,6.10
2022-08-03T17:24:41.431Z,5.70
2022-08-03T17:28:41.934Z,6.10
2022-08-03T17:30:07.681Z,5.68
2022-08-03T17:32:42.275Z,5.18
2022-08-03T17:35:10.464Z,4.53
2022-08-03T17:37:57.698Z,4.55
2022-08-03T17:40:29.305Z,4.75
2022-08-03T17:42:59.299Z,4.47
2022-08-03T17:45:26.303Z,4.57
2022-08-03T17:48:18.639Z,4.28
2022-08-03T17:50:56.157Z,4.43
2022-08-03T17:53:36.331Z,4.18
2022-08-03T17:59:16.651Z,5.15
2022-08-03T18:02:34.679Z,4.90
2022-08-03T18:05:16.421Z,6.25
2022-08-03T18:07:59.532Z,5.28
2022-08-03T18:10:34.819Z,6.32
2022-08-03T18:13:14.128Z,5.30
2022-08-03T18:15:51.905Z,5.57
2022-08-03T18:18:32.242Z,5.13
2022-08-03T18:21:04.589Z,5.45
2022-08-03T18:23:37.050Z,5.00
2022-08-03T18:26:10.691Z,5.95
2022-08-03T18:28:39.714Z,4.95
2022-08-03T18:31:12.560Z,6.03
2022-08-03T18:34:20.338Z,4.90
2022-08-03T18:36:31.998Z,4.75
2022-08-03T18:39:01.771Z,4.70
2022-08-03T18:41:34.926Z,5.07
2022-08-03T18:47:16.248Z,4.15
2022-08-03T18:50:07.912Z,4.30
2022-08-03T18:52:53.299Z,4.53
2022-08-03T18:55:33.484Z,3.83
2022-08-03T18:58:15.860Z,4.60
2022-08-03T19:01:00.854Z,4.50
2022-08-03T19:03:41.438Z,7.65
2022-08-03T19:06:22.673Z,7.38
2022-08-03T19:08:55.762Z,7.70
2022-08-03T19:12:12.592Z,7.38
2022-08-03T19:14:52.454Z,7.80
2022-08-03T19:20:13.372Z,7.63
2022-08-03T19:22:45.849Z,7.75
2022-08-03T19:25:15.486Z,7.22
2022-08-03T19:27:45.405Z,7.20
2022-08-03T19:30:35.672Z,7.47
2022-08-03T19:33:11.094Z,7.05
2022-08-03T19:35:55.402Z,7.53
2022-08-03T19:38:28.335Z,7.35
2022-08-03T19:41:03.545Z,7.32
2022-08-03T19:43:49.469Z,7.25
2022-08-03T19:46:22.288Z,7.80
2022-08-03T19:49:15.360Z,8.45
2022-08-03T19:52:01.827Z,7.90
2022-08-03T19:54:53.137Z,7.95
2022-08-03T19:57:27.236Z,6.90
2022-08-03T19:59:56.387Z,7.60
2022-08-03T20:02:26.171Z,7.43
2022-08-03T20:04:59.917Z,7.75
2022-08-03T20:07:29.207Z,7.80
2022-08-03T20:09:57.679Z,7.65
2022-08-03T20:12:34.386Z,8.07
2022-08-03T20:15:09.100Z,7.78
2022-08-03T20:17:56.884Z,8.20
2022-08-03T20:20:35.683Z,7.75
2022-08-03T20:23:24.057Z,7.25
2022-08-03T20:25:58.819Z,7.60
2022-08-03T20:28:32.208Z,7.38
2022-08-03T20:30:59.910Z,7.13
2022-08-03T20:33:46.187Z,7.72
2022-08-03T20:36:15.919Z,9.23
2022-08-03T20:38:47.717Z,7.80
2022-08-03T20:41:16.824Z,7.90
2022-08-03T20:43:49.427Z,7.30
2022-08-03T20:46:31.032Z,8.68
2022-08-03T20:49:04.765Z,7.43
2022-08-03T20:51:49.681Z,7.53
2022-08-03T20:54:30.600Z,6.78
2022-08-03T20:57:00.653Z,6.35
2022-08-03T20:59:46.903Z,6.43
2022-08-03T21:05:08.921Z,5.72
2022-08-03T21:08:04.951Z,5.63
2022-08-03T21:10:35.862Z,5.63
2022-08-03T21:12:59.142Z,5.50
2022-08-03T21:13:04.252Z,4.20
2022-08-03T21:13:08.995Z,7.93
2022-08-03T21:13:12.319Z,6.03
2022-08-03T21:13:18.478Z,5.40
2022-08-03T21:16:06.836Z,5.38
2022-08-03T21:18:49.773Z,5.15
2022-08-03T21:21:19.031Z,5.20
2022-08-03T21:23:49.884Z,5.22
2022-08-03T21:26:27.735Z,5.35
2022-08-03T21:28:57.715Z,5.32
2022-08-03T21:31:29.385Z,5.53
2022-08-03T21:34:02.961Z,5.20
2022-08-03T21:36:37.959Z,5.13
2022-08-03T21:39:07.794Z,5.32
2022-08-03T21:41:38.495Z,5.45
2022-08-03T21:44:06.784Z,5.15
2022-08-03T21:46:40.323Z,5.63
2022-08-03T21:49:52.108Z,5.40
2022-08-03T21:51:59.454Z,5.97
2022-08-03T21:54:36.422Z,5.67
2022-08-03T21:57:20.366Z,5.10
2022-08-03T21:59:57.026Z,4.93
2022-08-03T22:02:31.427Z,5.57
2022-08-03T22:05:05.085Z,5.65
2022-08-03T22:07:36.670Z,4.85
2022-08-03T22:10:06.528Z,5.35
2022-08-03T22:12:34.490Z,5.22
2022-08-03T22:15:04.636Z,4.68
2022-08-03T22:20:24.112Z,4.68
2022-08-03T22:22:56.117Z,4.60
2022-08-03T22:25:33.745Z,5.05
2022-08-03T22:28:09.397Z,4.85
2022-08-03T22:30:37.713Z,4.82
2022-08-03T22:33:11.371Z,4.82
2022-08-03T22:35:51.488Z,4.25
2022-08-03T22:38:18.873Z,5.30
2022-08-03T22:40:51.151Z,4.95
2022-08-03T22:43:25.234Z,4.65
2022-08-03T22:46:11.196Z,4.80
2022-08-03T22:48:40.721Z,4.78
2022-08-03T22:51:11.556Z,5.72
2022-08-03T22:53:40.350Z,4.45
2022-08-03T22:56:10.203Z,4.65
2022-08-03T22:58:37.223Z,5.00
2022-08-03T23:01:07.529Z,5.07
2022-08-03T23:06:25.555Z,4.68
2022-08-03T23:08:53.402Z,4.80
2022-08-03T23:11:21.627Z,4.82
2022-08-03T23:13:54.143Z,5.40
2022-08-03T23:16:29.102Z,5.20
2022-08-03T23:19:00.094Z,4.90
2022-08-03T23:21:53.327Z,5.47
2022-08-03T23:24:30.247Z,5.13
2022-08-03T23:26:58.390Z,5.97
2022-08-03T23:29:28.806Z,5.97
2022-08-03T23:31:57.484Z,5.70
2022-08-03T23:34:43.486Z,5.97
2022-08-03T23:37:14.560Z,6.00
2022-08-03T23:39:45.330Z,6.82
2022-08-03T23:42:15.092Z,7.05
2022-08-03T23:44:43.702Z,7.40
2022-08-03T23:47:14.333Z,7.28
2022-08-03T23:49:43.944Z,7.18
2022-08-03T23:52:15.960Z,7.38
2022-08-03T23:55:16.225Z,8.40
